sensor_id;sensor_type;location;lat;lon;timestamp;P1;durP1;ratioP1;P2;durP2;ratioP2
9256;SDS011;4665;51.368;6.782;2023-08-12T00:01:48;9.90;;;8.70;;
9256;SDS011;4665;51.368;6.782;2023-08-12T00:04:13;11.10;;;8.67;;
9256;SDS011;4665;51.368;6.782;2023-08-12T00:06:40;9.90;;;8.90;;
9256;SDS011;4665;51.368;6.782;2023-08-12T00:09:06;8.67;;;7.80;;
9256;SDS011;4665;51.368;6.782;2023-08-12T00:11:34;9.27;;;8.25;;
9256;SDS011;4665;51.368;6.782;2023-08-12T00:14:00;8.07;;;7.27;;
9256;SDS011;4665;51.368;6.782;2023-08-12T00:16:25;7.80;;;7.10;;
9256;SDS011;4665;51.368;6.782;2023-08-12T00:18:50;9.37;;;8.07;;
9256;SDS011;4665;51.368;6.782;2023-08-12T00:21:16;9.70;;;8.70;;
9256;SDS011;4665;51.368;6.782;2023-08-12T00:23:41;8.70;;;7.90;;
9256;SDS011;4665;51.368;6.782;2023-08-12T00:26:08;10.32;;;9.32;;
9256;SDS011;4665;51.368;6.782;2023-08-12T00:28:33;10.90;;;9.82;;
9256;SDS011;4665;51.368;6.782;2023-08-12T00:30:59;11.20;;;9.37;;
9256;SDS011;4665;51.368;6.782;2023-08-12T00:33:24;10.77;;;9.77;;
9256;SDS011;4665;51.368;6.782;2023-08-12T00:35:49;11.03;;;9.90;;
9256;SDS011;4665;51.368;6.782;2023-08-12T00:38:15;10.73;;;9.73;;
9256;SDS011;4665;51.368;6.782;2023-08-12T00:40:40;10.63;;;9.68;;
9256;SDS011;4665;51.368;6.782;2023-08-12T00:43:06;10.53;;;9.37;;
9256;SDS011;4665;51.368;6.782;2023-08-12T00:45:31;11.13;;;9.87;;
9256;SDS011;4665;51.368;6.782;2023-08-12T00:47:57;10.33;;;9.37;;
9256;SDS011;4665;51.368;6.782;2023-08-12T00:50:23;9.87;;;8.97;;
9256;SDS011;4665;51.368;6.782;2023-08-12T00:52:49;10.57;;;9.47;;
9256;SDS011;4665;51.368;6.782;2023-08-12T00:55:15;10.00;;;8.98;;
9256;SDS011;4665;51.368;6.782;2023-08-12T00:57:42;12.07;;;10.77;;
9256;SDS011;4665;51.368;6.782;2023-08-12T01:00:08;11.73;;;10.47;;
9256;SDS011;4665;51.368;6.782;2023-08-12T01:02:34;12.23;;;10.67;;
9256;SDS011;4665;51.368;6.782;2023-08-12T01:04:59;11.03;;;10.03;;
9256;SDS011;4665;51.368;6.782;2023-08-12T01:07:25;12.13;;;10.90;;
9256;SDS011;4665;51.368;6.782;2023-08-12T01:09:50;12.87;;;11.57;;
9256;SDS011;4665;51.368;6.782;2023-08-12T01:12:18;12.20;;;10.90;;
9256;SDS011;4665;51.368;6.782;2023-08-12T01:15:04;12.87;;;10.73;;
9256;SDS011;4665;51.368;6.782;2023-08-12T01:17:33;11.80;;;10.60;;
9256;SDS011;4665;51.368;6.782;2023-08-12T01:20:02;10.50;;;9.40;;
9256;SDS011;4665;51.368;6.782;2023-08-12T01:22:37;11.57;;;10.37;;
9256;SDS011;4665;51.368;6.782;2023-08-12T01:25:07;12.70;;;11.07;;
9256;SDS011;4665;51.368;6.782;2023-08-12T01:27:35;9.50;;;8.60;;
9256;SDS011;4665;51.368;6.782;2023-08-12T01:30:01;11.80;;;8.97;;
9256;SDS011;4665;51.368;6.782;2023-08-12T01:35:06;9.53;;;8.50;;
9256;SDS011;4665;51.368;6.782;2023-08-12T01:37:55;12.03;;;9.57;;
9256;SDS011;4665;51.368;6.782;2023-08-12T01:40:23;10.27;;;9.20;;
9256;SDS011;4665;51.368;6.782;2023-08-12T01:42:49;11.07;;;9.90;;
9256;SDS011;4665;51.368;6.782;2023-08-12T01:45:15;9.57;;;8.67;;
9256;SDS011;4665;51.368;6.782;2023-08-12T01:47:43;8.17;;;7.43;;
9256;SDS011;4665;51.368;6.782;2023-08-12T01:50:09;10.80;;;9.37;;
9256;SDS011;4665;51.368;6.782;2023-08-12T01:52:35;9.30;;;8.40;;
9256;SDS011;4665;51.368;6.782;2023-08-12T01:55:00;12.50;;;9.53;;
9256;SDS011;4665;51.368;6.782;2023-08-12T01:57:26;8.47;;;7.67;;
9256;SDS011;4665;51.368;6.782;2023-08-12T01:59:51;9.20;;;8.30;;
9256;SDS011;4665;51.368;6.782;2023-08-12T02:02:16;9.87;;;8.10;;
9256;SDS011;4665;51.368;6.782;2023-08-12T02:04:42;9.87;;;7.80;;
9256;SDS011;4665;51.368;6.782;2023-08-12T02:07:09;8.97;;;8.10;;
9256;SDS011;4665;51.368;6.782;2023-08-12T02:09:34;9.53;;;8.47;;
9256;SDS011;4665;51.368;6.782;2023-08-12T02:11:59;11.07;;;9.20;;
9256;SDS011;4665;51.368;6.782;2023-08-12T02:14:25;8.30;;;7.33;;
9256;SDS011;4665;51.368;6.782;2023-08-12T02:16:50;8.67;;;7.87;;
9256;SDS011;4665;51.368;6.782;2023-08-12T02:19:16;8.43;;;7.60;;
9256;SDS011;4665;51.368;6.782;2023-08-12T02:21:41;10.37;;;7.60;;
9256;SDS011;4665;51.368;6.782;2023-08-12T02:24:07;10.17;;;9.23;;
9256;SDS011;4665;51.368;6.782;2023-08-12T02:26:33;8.13;;;7.33;;
9256;SDS011;4665;51.368;6.782;2023-08-12T02:28:59;9.37;;;8.37;;
9256;SDS011;4665;51.368;6.782;2023-08-12T02:31:24;7.93;;;7.33;;
9256;SDS011;4665;51.368;6.782;2023-08-12T02:33:50;8.40;;;7.60;;
9256;SDS011;4665;51.368;6.782;2023-08-12T02:36:16;7.83;;;7.03;;
9256;SDS011;4665;51.368;6.782;2023-08-12T02:38:41;8.63;;;7.80;;
9256;SDS011;4665;51.368;6.782;2023-08-12T02:41:06;8.53;;;7.30;;
9256;SDS011;4665;51.368;6.782;2023-08-12T02:43:32;8.53;;;7.73;;
9256;SDS011;4665;51.368;6.782;2023-08-12T02:45:57;8.83;;;8.00;;
9256;SDS011;4665;51.368;6.782;2023-08-12T02:48:23;11.57;;;8.87;;
9256;SDS011;4665;51.368;6.782;2023-08-12T02:50:48;8.40;;;7.67;;
9256;SDS011;4665;51.368;6.782;2023-08-12T02:53:14;9.10;;;7.83;;
9256;SDS011;4665;51.368;6.782;2023-08-12T02:55:40;9.93;;;8.93;;
9256;SDS011;4665;51.368;6.782;2023-08-12T02:58:05;10.90;;;9.40;;
9256;SDS011;4665;51.368;6.782;2023-08-12T03:00:31;11.33;;;10.07;;
9256;SDS011;4665;51.368;6.782;2023-08-12T03:02:56;10.53;;;9.07;;
9256;SDS011;4665;51.368;6.782;2023-08-12T03:05:22;11.23;;;10.13;;
9256;SDS011;4665;51.368;6.782;2023-08-12T03:07:47;11.33;;;10.13;;
9256;SDS011;4665;51.368;6.782;2023-08-12T03:10:13;11.63;;;10.27;;
9256;SDS011;4665;51.368;6.782;2023-08-12T03:12:38;12.23;;;10.87;;
9256;SDS011;4665;51.368;6.782;2023-08-12T03:15:04;11.03;;;9.93;;
9256;SDS011;4665;51.368;6.782;2023-08-12T03:17:31;12.10;;;10.90;;
9256;SDS011;4665;51.368;6.782;2023-08-12T03:19:57;10.30;;;8.97;;
9256;SDS011;4665;51.368;6.782;2023-08-12T03:22:24;14.33;;;11.13;;
9256;SDS011;4665;51.368;6.782;2023-08-12T03:24:50;12.53;;;10.93;;
9256;SDS011;4665;51.368;6.782;2023-08-12T03:27:15;13.03;;;10.90;;
9256;SDS011;4665;51.368;6.782;2023-08-12T03:29:41;12.07;;;10.93;;
9256;SDS011;4665;51.368;6.782;2023-08-12T03:32:06;12.57;;;10.83;;
9256;SDS011;4665;51.368;6.782;2023-08-12T03:34:32;14.07;;;12.57;;
9256;SDS011;4665;51.368;6.782;2023-08-12T03:36:57;12.93;;;11.53;;
9256;SDS011;4665;51.368;6.782;2023-08-12T03:39:23;12.93;;;11.63;;
9256;SDS011;4665;51.368;6.782;2023-08-12T03:41:48;12.40;;;11.20;;
9256;SDS011;4665;51.368;6.782;2023-08-12T03:44:15;12.87;;;11.57;;
9256;SDS011;4665;51.368;6.782;2023-08-12T03:46:41;13.57;;;11.27;;
9256;SDS011;4665;51.368;6.782;2023-08-12T03:49:06;11.53;;;10.40;;
9256;SDS011;4665;51.368;6.782;2023-08-12T03:51:31;12.03;;;10.83;;
9256;SDS011;4665;51.368;6.782;2023-08-12T03:53:57;10.93;;;9.83;;
9256;SDS011;4665;51.368;6.782;2023-08-12T03:56:23;11.00;;;9.73;;
9256;SDS011;4665;51.368;6.782;2023-08-12T03:58:48;11.80;;;10.57;;
9256;SDS011;4665;51.368;6.782;2023-08-12T04:01:14;12.63;;;11.27;;
9256;SDS011;4665;51.368;6.782;2023-08-12T04:03:39;15.60;;;12.43;;
9256;SDS011;4665;51.368;6.782;2023-08-12T04:06:04;12.83;;;11.53;;
9256;SDS011;4665;51.368;6.782;2023-08-12T04:08:30;13.60;;;11.70;;
9256;SDS011;4665;51.368;6.782;2023-08-12T04:10:59;13.63;;;11.77;;
9256;SDS011;4665;51.368;6.782;2023-08-12T04:13:25;13.17;;;11.10;;
9256;SDS011;4665;51.368;6.782;2023-08-12T04:15:50;11.47;;;10.27;;
9256;SDS011;4665;51.368;6.782;2023-08-12T04:18:16;13.87;;;10.53;;
9256;SDS011;4665;51.368;6.782;2023-08-12T04:20:42;12.40;;;11.20;;
9256;SDS011;4665;51.368;6.782;2023-08-12T04:23:07;11.93;;;10.50;;
9256;SDS011;4665;51.368;6.782;2023-08-12T04:25:33;11.03;;;9.63;;
9256;SDS011;4665;51.368;6.782;2023-08-12T04:27:58;12.03;;;10.23;;
9256;SDS011;4665;51.368;6.782;2023-08-12T04:30:24;13.60;;;10.60;;
9256;SDS011;4665;51.368;6.782;2023-08-12T04:32:49;10.27;;;9.27;;
9256;SDS011;4665;51.368;6.782;2023-08-12T04:35:14;10.90;;;9.80;;
9256;SDS011;4665;51.368;6.782;2023-08-12T04:37:40;11.03;;;9.93;;
9256;SDS011;4665;51.368;6.782;2023-08-12T04:40:06;11.67;;;10.20;;
9256;SDS011;4665;51.368;6.782;2023-08-12T04:42:34;12.10;;;10.87;;
9256;SDS011;4665;51.368;6.782;2023-08-12T04:45:00;10.43;;;9.33;;
9256;SDS011;4665;51.368;6.782;2023-08-12T04:47:25;9.70;;;8.70;;
9256;SDS011;4665;51.368;6.782;2023-08-12T04:49:51;10.80;;;9.70;;
9256;SDS011;4665;51.368;6.782;2023-08-12T04:52:17;10.23;;;8.50;;
9256;SDS011;4665;51.368;6.782;2023-08-12T04:54:42;11.63;;;10.37;;
9256;SDS011;4665;51.368;6.782;2023-08-12T04:57:08;10.73;;;9.60;;
9256;SDS011;4665;51.368;6.782;2023-08-12T04:59:33;13.47;;;10.23;;
9256;SDS011;4665;51.368;6.782;2023-08-12T05:01:59;11.37;;;10.00;;
9256;SDS011;4665;51.368;6.782;2023-08-12T05:04:24;11.13;;;9.90;;
9256;SDS011;4665;51.368;6.782;2023-08-12T05:06:49;12.93;;;11.10;;
9256;SDS011;4665;51.368;6.782;2023-08-12T05:09:15;12.73;;;11.37;;
9256;SDS011;4665;51.368;6.782;2023-08-12T05:11:40;9.70;;;8.80;;
9256;SDS011;4665;51.368;6.782;2023-08-12T05:14:06;12.60;;;11.27;;
9256;SDS011;4665;51.368;6.782;2023-08-12T05:16:31;11.80;;;10.70;;
9256;SDS011;4665;51.368;6.782;2023-08-12T05:18:57;10.70;;;9.53;;
9256;SDS011;4665;51.368;6.782;2023-08-12T05:21:22;10.83;;;9.07;;
9256;SDS011;4665;51.368;6.782;2023-08-12T05:23:48;9.60;;;8.73;;
9256;SDS011;4665;51.368;6.782;2023-08-12T05:26:13;10.10;;;9.10;;
9256;SDS011;4665;51.368;6.782;2023-08-12T05:28:39;12.53;;;9.47;;
9256;SDS011;4665;51.368;6.782;2023-08-12T05:31:04;10.93;;;8.70;;
9256;SDS011;4665;51.368;6.782;2023-08-12T05:33:30;11.87;;;10.27;;
9256;SDS011;4665;51.368;6.782;2023-08-12T05:35:55;9.13;;;8.33;;
9256;SDS011;4665;51.368;6.782;2023-08-12T05:38:20;10.33;;;9.23;;
9256;SDS011;4665;51.368;6.782;2023-08-12T05:40:46;9.30;;;8.40;;
9256;SDS011;4665;51.368;6.782;2023-08-12T05:43:12;8.97;;;8.17;;
9256;SDS011;4665;51.368;6.782;2023-08-12T05:45:37;8.87;;;7.97;;
9256;SDS011;4665;51.368;6.782;2023-08-12T05:48:02;8.97;;;8.03;;
9256;SDS011;4665;51.368;6.782;2023-08-12T05:50:28;9.53;;;8.63;;
9256;SDS011;4665;51.368;6.782;2023-08-12T05:52:54;8.40;;;7.50;;
9256;SDS011;4665;51.368;6.782;2023-08-12T05:55:19;9.33;;;8.43;;
9256;SDS011;4665;51.368;6.782;2023-08-12T05:57:44;8.57;;;7.67;;
9256;SDS011;4665;51.368;6.782;2023-08-12T06:00:10;10.37;;;9.20;;
9256;SDS011;4665;51.368;6.782;2023-08-12T06:02:36;10.13;;;9.10;;
9256;SDS011;4665;51.368;6.782;2023-08-12T06:05:02;11.83;;;8.57;;
9256;SDS011;4665;51.368;6.782;2023-08-12T06:07:27;9.57;;;8.70;;
9256;SDS011;4665;51.368;6.782;2023-08-12T06:09:53;10.07;;;8.77;;
9256;SDS011;4665;51.368;6.782;2023-08-12T06:12:18;10.90;;;8.53;;
9256;SDS011;4665;51.368;6.782;2023-08-12T06:14:44;9.50;;;8.60;;
9256;SDS011;4665;51.368;6.782;2023-08-12T06:17:09;8.67;;;7.80;;
9256;SDS011;4665;51.368;6.782;2023-08-12T06:19:34;11.90;;;8.77;;
9256;SDS011;4665;51.368;6.782;2023-08-12T06:22:00;11.67;;;8.60;;
9256;SDS011;4665;51.368;6.782;2023-08-12T06:24:25;11.00;;;9.90;;
9256;SDS011;4665;51.368;6.782;2023-08-12T06:26:51;12.27;;;9.90;;
9256;SDS011;4665;51.368;6.782;2023-08-12T06:29:16;10.90;;;9.67;;
9256;SDS011;4665;51.368;6.782;2023-08-12T06:31:42;11.57;;;10.37;;
9256;SDS011;4665;51.368;6.782;2023-08-12T06:34:07;12.20;;;9.80;;
9256;SDS011;4665;51.368;6.782;2023-08-12T06:36:32;13.60;;;10.43;;
9256;SDS011;4665;51.368;6.782;2023-08-12T06:38:58;11.87;;;9.40;;
9256;SDS011;4665;51.368;6.782;2023-08-12T06:41:23;11.30;;;10.20;;
9256;SDS011;4665;51.368;6.782;2023-08-12T06:43:49;10.03;;;9.13;;
9256;SDS011;4665;51.368;6.782;2023-08-12T06:46:14;9.67;;;8.73;;
9256;SDS011;4665;51.368;6.782;2023-08-12T06:48:40;10.83;;;9.70;;
9256;SDS011;4665;51.368;6.782;2023-08-12T06:51:05;10.47;;;9.37;;
9256;SDS011;4665;51.368;6.782;2023-08-12T06:53:35;11.50;;;9.97;;
9256;SDS011;4665;51.368;6.782;2023-08-12T06:56:02;10.23;;;9.23;;
9256;SDS011;4665;51.368;6.782;2023-08-12T06:58:28;12.43;;;9.63;;
9256;SDS011;4665;51.368;6.782;2023-08-12T07:00:53;11.20;;;9.47;;
9256;SDS011;4665;51.368;6.782;2023-08-12T07:03:19;9.70;;;8.80;;
9256;SDS011;4665;51.368;6.782;2023-08-12T07:05:44;9.63;;;8.67;;
9256;SDS011;4665;51.368;6.782;2023-08-12T07:08:10;9.20;;;8.40;;
9256;SDS011;4665;51.368;6.782;2023-08-12T07:10:39;10.23;;;9.33;;
9256;SDS011;4665;51.368;6.782;2023-08-12T07:13:07;13.13;;;9.70;;
9256;SDS011;4665;51.368;6.782;2023-08-12T07:15:32;9.97;;;8.93;;
9256;SDS011;4665;51.368;6.782;2023-08-12T07:17:58;10.17;;;9.27;;
9256;SDS011;4665;51.368;6.782;2023-08-12T07:20:26;9.67;;;8.90;;
9256;SDS011;4665;51.368;6.782;2023-08-12T07:22:51;10.27;;;9.27;;
9256;SDS011;4665;51.368;6.782;2023-08-12T07:25:17;9.13;;;8.37;;
9256;SDS011;4665;51.368;6.782;2023-08-12T07:27:42;9.53;;;8.63;;
9256;SDS011;4665;51.368;6.782;2023-08-12T07:30:08;10.70;;;9.70;;
9256;SDS011;4665;51.368;6.782;2023-08-12T07:32:36;9.30;;;8.50;;
9256;SDS011;4665;51.368;6.782;2023-08-12T07:35:01;9.23;;;8.43;;
9256;SDS011;4665;51.368;6.782;2023-08-12T07:37:28;9.50;;;8.70;;
9256;SDS011;4665;51.368;6.782;2023-08-12T07:39:54;10.03;;;9.00;;
9256;SDS011;4665;51.368;6.782;2023-08-12T07:42:19;8.97;;;8.17;;
9256;SDS011;4665;51.368;6.782;2023-08-12T07:44:45;8.93;;;8.13;;
9256;SDS011;4665;51.368;6.782;2023-08-12T07:47:11;8.47;;;7.77;;
9256;SDS011;4665;51.368;6.782;2023-08-12T07:49:36;9.80;;;8.90;;
9256;SDS011;4665;51.368;6.782;2023-08-12T07:52:02;9.20;;;8.40;;
9256;SDS011;4665;51.368;6.782;2023-08-12T07:54:27;9.27;;;8.37;;
9256;SDS011;4665;51.368;6.782;2023-08-12T07:56:53;8.63;;;7.80;;
9256;SDS011;4665;51.368;6.782;2023-08-12T07:59:21;7.37;;;6.67;;
9256;SDS011;4665;51.368;6.782;2023-08-12T08:01:46;8.53;;;7.80;;
9256;SDS011;4665;51.368;6.782;2023-08-12T08:04:12;7.37;;;6.73;;
9256;SDS011;4665;51.368;6.782;2023-08-12T08:06:37;6.97;;;6.30;;
9256;SDS011;4665;51.368;6.782;2023-08-12T08:09:03;6.27;;;5.70;;
9256;SDS011;4665;51.368;6.782;2023-08-12T08:11:29;7.20;;;6.60;;
9256;SDS011;4665;51.368;6.782;2023-08-12T08:13:55;6.80;;;6.30;;
9256;SDS011;4665;51.368;6.782;2023-08-12T08:16:20;7.57;;;6.87;;
9256;SDS011;4665;51.368;6.782;2023-08-12T08:18:46;7.17;;;6.60;;
9256;SDS011;4665;51.368;6.782;2023-08-12T08:21:11;7.10;;;6.53;;
9256;SDS011;4665;51.368;6.782;2023-08-12T08:23:36;7.63;;;6.93;;
9256;SDS011;4665;51.368;6.782;2023-08-12T08:26:02;7.87;;;7.17;;
9256;SDS011;4665;51.368;6.782;2023-08-12T08:28:27;6.97;;;6.27;;
9256;SDS011;4665;51.368;6.782;2023-08-12T08:30:56;8.00;;;7.10;;
9256;SDS011;4665;51.368;6.782;2023-08-12T08:33:21;8.87;;;7.63;;
9256;SDS011;4665;51.368;6.782;2023-08-12T08:35:46;9.13;;;8.23;;
9256;SDS011;4665;51.368;6.782;2023-08-12T08:38:12;8.40;;;7.60;;
9256;SDS011;4665;51.368;6.782;2023-08-12T08:40:37;8.67;;;7.97;;
9256;SDS011;4665;51.368;6.782;2023-08-12T08:43:04;8.57;;;7.67;;
9256;SDS011;4665;51.368;6.782;2023-08-12T08:45:32;8.00;;;7.27;;
9256;SDS011;4665;51.368;6.782;2023-08-12T08:48:04;7.37;;;6.67;;
9256;SDS011;4665;51.368;6.782;2023-08-12T08:50:31;10.20;;;7.17;;
9256;SDS011;4665;51.368;6.782;2023-08-12T08:52:57;7.60;;;6.90;;
9256;SDS011;4665;51.368;6.782;2023-08-12T08:55:22;7.97;;;7.17;;
9256;SDS011;4665;51.368;6.782;2023-08-12T08:57:48;6.20;;;5.70;;
9256;SDS011;4665;51.368;6.782;2023-08-12T09:00:18;6.40;;;5.90;;
9256;SDS011;4665;51.368;6.782;2023-08-12T09:02:45;6.00;;;5.50;;
9256;SDS011;4665;51.368;6.782;2023-08-12T09:05:11;5.93;;;5.43;;
9256;SDS011;4665;51.368;6.782;2023-08-12T09:07:39;8.87;;;5.77;;
9256;SDS011;4665;51.368;6.782;2023-08-12T09:10:06;6.17;;;4.87;;
9256;SDS011;4665;51.368;6.782;2023-08-12T09:12:33;5.07;;;4.70;;
9256;SDS011;4665;51.368;6.782;2023-08-12T09:14:59;4.83;;;4.43;;
9256;SDS011;4665;51.368;6.782;2023-08-12T09:17:24;7.53;;;4.67;;
9256;SDS011;4665;51.368;6.782;2023-08-12T09:19:50;5.50;;;5.10;;
9256;SDS011;4665;51.368;6.782;2023-08-12T09:22:15;4.27;;;3.97;;
9256;SDS011;4665;51.368;6.782;2023-08-12T09:24:43;4.83;;;4.13;;
9256;SDS011;4665;51.368;6.782;2023-08-12T09:27:10;5.93;;;4.70;;
9256;SDS011;4665;51.368;6.782;2023-08-12T09:29:36;4.43;;;4.03;;
9256;SDS011;4665;51.368;6.782;2023-08-12T09:34:37;5.00;;;4.60;;
9256;SDS011;4665;51.368;6.782;2023-08-12T09:37:03;7.03;;;4.73;;
9256;SDS011;4665;51.368;6.782;2023-08-12T09:39:29;6.03;;;4.57;;
9256;SDS011;4665;51.368;6.782;2023-08-12T09:41:58;4.37;;;3.97;;
9256;SDS011;4665;51.368;6.782;2023-08-12T09:44:24;8.60;;;4.30;;
9256;SDS011;4665;51.368;6.782;2023-08-12T09:46:55;5.67;;;4.00;;
9256;SDS011;4665;51.368;6.782;2023-08-12T09:49:22;3.93;;;3.60;;
9256;SDS011;4665;51.368;6.782;2023-08-12T09:51:48;3.97;;;3.70;;
9256;SDS011;4665;51.368;6.782;2023-08-12T09:54:13;4.00;;;3.57;;
9256;SDS011;4665;51.368;6.782;2023-08-12T09:56:39;3.83;;;3.53;;
9256;SDS011;4665;51.368;6.782;2023-08-12T09:59:06;3.70;;;3.40;;
9256;SDS011;4665;51.368;6.782;2023-08-12T10:01:33;3.57;;;3.27;;
9256;SDS011;4665;51.368;6.782;2023-08-12T10:04:00;4.03;;;3.60;;
9256;SDS011;4665;51.368;6.782;2023-08-12T10:06:26;2.93;;;2.70;;
9256;SDS011;4665;51.368;6.782;2023-08-12T10:08:52;2.73;;;2.63;;
9256;SDS011;4665;51.368;6.782;2023-08-12T10:11:18;2.80;;;2.53;;
9256;SDS011;4665;51.368;6.782;2023-08-12T10:13:44;3.13;;;2.80;;
9256;SDS011;4665;51.368;6.782;2023-08-12T10:16:10;2.43;;;2.33;;
9256;SDS011;4665;51.368;6.782;2023-08-12T10:18:38;2.67;;;2.47;;
9256;SDS011;4665;51.368;6.782;2023-08-12T10:21:05;2.80;;;2.60;;
9256;SDS011;4665;51.368;6.782;2023-08-12T10:23:34;2.70;;;2.50;;
9256;SDS011;4665;51.368;6.782;2023-08-12T10:26:00;3.30;;;3.10;;
9256;SDS011;4665;51.368;6.782;2023-08-12T10:28:29;2.90;;;2.70;;
9256;SDS011;4665;51.368;6.782;2023-08-12T10:30:56;2.73;;;2.53;;
9256;SDS011;4665;51.368;6.782;2023-08-12T10:33:22;2.60;;;2.40;;
9256;SDS011;4665;51.368;6.782;2023-08-12T10:35:48;2.33;;;2.23;;
9256;SDS011;4665;51.368;6.782;2023-08-12T10:38:17;2.40;;;2.30;;
9256;SDS011;4665;51.368;6.782;2023-08-12T10:40:45;2.77;;;2.20;;
9256;SDS011;4665;51.368;6.782;2023-08-12T10:43:12;2.30;;;2.20;;
9256;SDS011;4665;51.368;6.782;2023-08-12T10:45:42;2.90;;;2.37;;
9256;SDS011;4665;51.368;6.782;2023-08-12T10:50:34;2.03;;;1.93;;
9256;SDS011;4665;51.368;6.782;2023-08-12T10:52:59;2.03;;;1.90;;
9256;SDS011;4665;51.368;6.782;2023-08-12T10:55:55;1.77;;;1.77;;
9256;SDS011;4665;51.368;6.782;2023-08-12T10:58:24;2.00;;;1.90;;
9256;SDS011;4665;51.368;6.782;2023-08-12T11:01:21;2.33;;;2.13;;
9256;SDS011;4665;51.368;6.782;2023-08-12T11:03:48;1.90;;;1.80;;
9256;SDS011;4665;51.368;6.782;2023-08-12T11:06:13;1.77;;;1.77;;
9256;SDS011;4665;51.368;6.782;2023-08-12T11:08:51;1.90;;;1.80;;
9256;SDS011;4665;51.368;6.782;2023-08-12T11:11:24;2.00;;;1.90;;
9256;SDS011;4665;51.368;6.782;2023-08-12T11:13:54;1.87;;;1.87;;
9256;SDS011;4665;51.368;6.782;2023-08-12T11:16:25;1.67;;;1.67;;
9256;SDS011;4665;51.368;6.782;2023-08-12T11:18:57;2.03;;;1.90;;
9256;SDS011;4665;51.368;6.782;2023-08-12T11:21:24;1.57;;;1.57;;
9256;SDS011;4665;51.368;6.782;2023-08-12T11:23:51;1.80;;;1.70;;
9256;SDS011;4665;51.368;6.782;2023-08-12T11:26:21;1.83;;;1.73;;
9256;SDS011;4665;51.368;6.782;2023-08-12T11:28:48;2.10;;;1.40;;
9256;SDS011;4665;51.368;6.782;2023-08-12T11:31:14;1.33;;;1.33;;
9256;SDS011;4665;51.368;6.782;2023-08-12T11:33:39;1.37;;;1.37;;
9256;SDS011;4665;51.368;6.782;2023-08-12T11:36:06;1.37;;;1.37;;
9256;SDS011;4665;51.368;6.782;2023-08-12T11:38:31;1.60;;;1.60;;
9256;SDS011;4665;51.368;6.782;2023-08-12T11:40:57;1.70;;;1.60;;
9256;SDS011;4665;51.368;6.782;2023-08-12T11:43:26;1.77;;;1.67;;
9256;SDS011;4665;51.368;6.782;2023-08-12T11:45:51;2.17;;;1.80;;
9256;SDS011;4665;51.368;6.782;2023-08-12T11:48:17;1.70;;;1.60;;
9256;SDS011;4665;51.368;6.782;2023-08-12T11:50:42;1.53;;;1.53;;
9256;SDS011;4665;51.368;6.782;2023-08-12T11:53:07;1.70;;;1.60;;
9256;SDS011;4665;51.368;6.782;2023-08-12T11:55:33;2.13;;;1.90;;
9256;SDS011;4665;51.368;6.782;2023-08-12T11:57:59;2.30;;;1.73;;
9256;SDS011;4665;51.368;6.782;2023-08-12T12:00:24;2.00;;;1.90;;
9256;SDS011;4665;51.368;6.782;2023-08-12T12:02:54;3.13;;;2.70;;
9256;SDS011;4665;51.368;6.782;2023-08-12T12:05:25;5.47;;;3.43;;
9256;SDS011;4665;51.368;6.782;2023-08-12T12:07:59;4.07;;;3.70;;
9256;SDS011;4665;51.368;6.782;2023-08-12T12:10:29;4.03;;;3.53;;
9256;SDS011;4665;51.368;6.782;2023-08-12T12:12:56;6.30;;;4.97;;
9256;SDS011;4665;51.368;6.782;2023-08-12T12:15:23;6.73;;;6.07;;
9256;SDS011;4665;51.368;6.782;2023-08-12T12:17:49;6.67;;;6.07;;
9256;SDS011;4665;51.368;6.782;2023-08-12T12:20:16;7.17;;;6.57;;
9256;SDS011;4665;51.368;6.782;2023-08-12T12:22:42;6.73;;;6.17;;
9256;SDS011;4665;51.368;6.782;2023-08-12T12:25:10;7.83;;;5.90;;
9256;SDS011;4665;51.368;6.782;2023-08-12T12:27:37;5.10;;;4.77;;
9256;SDS011;4665;51.368;6.782;2023-08-12T12:30:09;5.57;;;5.17;;
9256;SDS011;4665;51.368;6.782;2023-08-12T12:32:36;9.10;;;5.40;;
9256;SDS011;4665;51.368;6.782;2023-08-12T12:35:02;5.87;;;5.40;;
9256;SDS011;4665;51.368;6.782;2023-08-12T12:37:29;5.90;;;5.50;;
9256;SDS011;4665;51.368;6.782;2023-08-12T12:39:54;6.30;;;5.80;;
9256;SDS011;4665;51.368;6.782;2023-08-12T12:42:20;6.40;;;6.00;;
9256;SDS011;4665;51.368;6.782;2023-08-12T12:44:45;6.10;;;5.60;;
9256;SDS011;4665;51.368;6.782;2023-08-12T12:47:11;6.23;;;5.83;;
9256;SDS011;4665;51.368;6.782;2023-08-12T12:49:37;7.03;;;6.33;;
9256;SDS011;4665;51.368;6.782;2023-08-12T12:52:04;7.13;;;6.43;;
9256;SDS011;4665;51.368;6.782;2023-08-12T12:54:29;7.07;;;5.60;;
9256;SDS011;4665;51.368;6.782;2023-08-12T12:56:55;5.93;;;5.53;;
9256;SDS011;4665;51.368;6.782;2023-08-12T12:59:21;5.77;;;5.27;;
9256;SDS011;4665;51.368;6.782;2023-08-12T13:01:46;5.40;;;4.90;;
9256;SDS011;4665;51.368;6.782;2023-08-12T13:04:12;4.53;;;4.23;;
9256;SDS011;4665;51.368;6.782;2023-08-12T13:06:37;5.80;;;5.30;;
9256;SDS011;4665;51.368;6.782;2023-08-12T13:09:03;5.93;;;4.87;;
9256;SDS011;4665;51.368;6.782;2023-08-12T13:11:31;6.30;;;5.13;;
9256;SDS011;4665;51.368;6.782;2023-08-12T13:13:58;5.50;;;5.10;;
9256;SDS011;4665;51.368;6.782;2023-08-12T13:16:24;6.77;;;5.40;;
9256;SDS011;4665;51.368;6.782;2023-08-12T13:18:49;6.33;;;5.73;;
9256;SDS011;4665;51.368;6.782;2023-08-12T13:21:14;6.53;;;5.93;;
9256;SDS011;4665;51.368;6.782;2023-08-12T13:23:40;6.90;;;6.30;;
9256;SDS011;4665;51.368;6.782;2023-08-12T13:26:05;7.63;;;7.00;;
9256;SDS011;4665;51.368;6.782;2023-08-12T13:28:31;8.10;;;7.40;;
9256;SDS011;4665;51.368;6.782;2023-08-12T13:30:56;7.20;;;6.60;;
9256;SDS011;4665;51.368;6.782;2023-08-12T13:33:22;7.60;;;6.90;;
9256;SDS011;4665;51.368;6.782;2023-08-12T13:35:47;7.43;;;6.73;;
9256;SDS011;4665;51.368;6.782;2023-08-12T13:38:13;8.13;;;7.43;;
9256;SDS011;4665;51.368;6.782;2023-08-12T13:40:38;8.30;;;7.70;;
9256;SDS011;4665;51.368;6.782;2023-08-12T13:43:03;9.83;;;9.03;;
9256;SDS011;4665;51.368;6.782;2023-08-12T13:45:29;11.00;;;10.00;;
9256;SDS011;4665;51.368;6.782;2023-08-12T13:47:54;11.23;;;10.23;;
9256;SDS011;4665;51.368;6.782;2023-08-12T13:50:20;11.73;;;10.70;;
9256;SDS011;4665;51.368;6.782;2023-08-12T13:52:46;11.83;;;10.83;;
9256;SDS011;4665;51.368;6.782;2023-08-12T13:55:12;12.00;;;10.90;;
9256;SDS011;4665;51.368;6.782;2023-08-12T13:57:37;12.23;;;11.00;;
9256;SDS011;4665;51.368;6.782;2023-08-12T14:00:03;12.40;;;11.13;;
9256;SDS011;4665;51.368;6.782;2023-08-12T14:02:34;11.87;;;10.70;;
9256;SDS011;4665;51.368;6.782;2023-08-12T14:04:59;12.00;;;10.80;;
9256;SDS011;4665;51.368;6.782;2023-08-12T14:07:25;11.53;;;10.47;;
9256;SDS011;4665;51.368;6.782;2023-08-12T14:09:50;12.70;;;11.47;;
9256;SDS011;4665;51.368;6.782;2023-08-12T14:12:16;12.90;;;11.73;;
9256;SDS011;4665;51.368;6.782;2023-08-12T14:14:41;11.83;;;10.83;;
9256;SDS011;4665;51.368;6.782;2023-08-12T14:17:07;11.67;;;10.67;;
9256;SDS011;4665;51.368;6.782;2023-08-12T14:19:32;11.07;;;10.10;;
9256;SDS011;4665;51.368;6.782;2023-08-12T14:21:58;10.53;;;9.53;;
9256;SDS011;4665;51.368;6.782;2023-08-12T14:24:23;10.50;;;9.50;;
9256;SDS011;4665;51.368;6.782;2023-08-12T14:26:49;9.73;;;8.83;;
9256;SDS011;4665;51.368;6.782;2023-08-12T14:29:14;8.37;;;7.67;;
9256;SDS011;4665;51.368;6.782;2023-08-12T14:31:40;7.63;;;7.10;;
9256;SDS011;4665;51.368;6.782;2023-08-12T14:34:05;8.20;;;7.43;;
9256;SDS011;4665;51.368;6.782;2023-08-12T14:36:31;7.77;;;6.90;;
9256;SDS011;4665;51.368;6.782;2023-08-12T14:38:56;5.53;;;5.13;;
9256;SDS011;4665;51.368;6.782;2023-08-12T14:41:22;6.30;;;5.80;;
9256;SDS011;4665;51.368;6.782;2023-08-12T14:43:47;5.70;;;5.23;;
9256;SDS011;4665;51.368;6.782;2023-08-12T14:46:13;4.97;;;4.57;;
9256;SDS011;4665;51.368;6.782;2023-08-12T14:48:38;5.17;;;4.77;;
9256;SDS011;4665;51.368;6.782;2023-08-12T14:51:04;6.27;;;5.03;;
9256;SDS011;4665;51.368;6.782;2023-08-12T14:53:29;5.23;;;4.80;;
9256;SDS011;4665;51.368;6.782;2023-08-12T14:55:55;5.57;;;5.17;;
9256;SDS011;4665;51.368;6.782;2023-08-12T14:58:20;5.63;;;5.10;;
9256;SDS011;4665;51.368;6.782;2023-08-12T15:00:46;5.97;;;5.43;;
9256;SDS011;4665;51.368;6.782;2023-08-12T15:03:12;6.10;;;5.50;;
9256;SDS011;4665;51.368;6.782;2023-08-12T15:05:39;5.80;;;5.30;;
9256;SDS011;4665;51.368;6.782;2023-08-12T15:08:05;6.70;;;5.63;;
9256;SDS011;4665;51.368;6.782;2023-08-12T15:10:31;4.60;;;4.20;;